Santee, California
Current Conditions -  °F | °C
As of 6:53 PM on Monday 22 Dec 2014 (Local Time) from KMYF Reporting Station
Haze Haze  
Wind Chill: 61°   Ceiling: Unl
Heat Index: 61°   Visibility: 5mi
Dew Point: 57°   Wind: 3mph
Humidity: 87%   Direction: 20°NNE
Pressure: 29.99"   Gusts: NA
Location:  32.87°N, 116.97°W
Report Text: KMYF 230253Z 02003KT 5SM BR CLR 16/14 A2999 RMK AO2 SLP153 T01610139 53010
Loading
Personal Weather Stations






























Interactive Weather Map New forecast layout! Learn more

10-Day Weather Forecast

Advertisements
Track Severe Weather on mobile